< < Back
Terminal Aerodrome Forecast


Current Version              Previous Versions:   1  2  3  4  5  6  7  8  9  

Terminal Aerodrome Forecast

632
FTUS44 KBMX 301700 RRA
TAFTCL
TAF
KTCL 301739Z 3018/0118 07005KT P6SM SCT045
     FM010000 00000KT P6SM SKC
      TEMPO 0109/0112 5SM BR=

Latest METAR

390
SAUS70 KWBC 011400 RRN
MTRTCL
METAR KTCL 011353Z 00000KT 10SM CLR 21/18 A2999 RMK AO2 SLP154
T02110183


USA.gov is the U.S. government's official web portal to all federal, state and local government web resources and services.